sensor_id;sensor_type;location;lat;lon;timestamp;P1;durP1;ratioP1;P2;durP2;ratioP2
5867;SDS011;2960;49.142;7.768;2023-02-01T00:00:28;8.07;;;2.93;;
5867;SDS011;2960;49.142;7.768;2023-02-01T00:02:55;9.70;;;3.00;;
5867;SDS011;2960;49.142;7.768;2023-02-01T00:05:22;9.90;;;3.33;;
5867;SDS011;2960;49.142;7.768;2023-02-01T00:07:50;9.07;;;3.57;;
5867;SDS011;2960;49.142;7.768;2023-02-01T00:10:18;8.43;;;2.90;;
5867;SDS011;2960;49.142;7.768;2023-02-01T00:12:46;9.53;;;3.00;;
5867;SDS011;2960;49.142;7.768;2023-02-01T00:15:13;8.30;;;3.07;;
5867;SDS011;2960;49.142;7.768;2023-02-01T00:17:40;10.10;;;3.23;;
5867;SDS011;2960;49.142;7.768;2023-02-01T00:20:08;8.90;;;3.20;;
5867;SDS011;2960;49.142;7.768;2023-02-01T00:22:37;8.10;;;2.73;;
5867;SDS011;2960;49.142;7.768;2023-02-01T00:25:04;8.30;;;3.17;;
5867;SDS011;2960;49.142;7.768;2023-02-01T00:27:34;8.30;;;3.07;;
5867;SDS011;2960;49.142;7.768;2023-02-01T00:30:01;9.47;;;3.00;;
5867;SDS011;2960;49.142;7.768;2023-02-01T00:32:28;8.60;;;3.30;;
5867;SDS011;2960;49.142;7.768;2023-02-01T00:34:56;9.60;;;3.70;;
5867;SDS011;2960;49.142;7.768;2023-02-01T00:37:23;9.37;;;3.53;;
5867;SDS011;2960;49.142;7.768;2023-02-01T00:39:51;11.77;;;3.80;;
5867;SDS011;2960;49.142;7.768;2023-02-01T00:42:19;9.33;;;3.47;;
5867;SDS011;2960;49.142;7.768;2023-02-01T00:44:50;9.50;;;3.57;;
5867;SDS011;2960;49.142;7.768;2023-02-01T00:47:17;12.93;;;3.47;;
5867;SDS011;2960;49.142;7.768;2023-02-01T00:49:45;9.40;;;3.70;;
5867;SDS011;2960;49.142;7.768;2023-02-01T00:52:12;9.33;;;3.80;;
5867;SDS011;2960;49.142;7.768;2023-02-01T00:54:39;9.53;;;3.87;;
5867;SDS011;2960;49.142;7.768;2023-02-01T00:57:08;9.80;;;4.43;;
5867;SDS011;2960;49.142;7.768;2023-02-01T00:59:35;9.53;;;3.60;;
5867;SDS011;2960;49.142;7.768;2023-02-01T01:02:04;9.40;;;3.50;;
5867;SDS011;2960;49.142;7.768;2023-02-01T01:04:31;9.93;;;3.80;;
5867;SDS011;2960;49.142;7.768;2023-02-01T01:06:58;10.43;;;4.27;;
5867;SDS011;2960;49.142;7.768;2023-02-01T01:09:25;10.20;;;3.77;;
5867;SDS011;2960;49.142;7.768;2023-02-01T01:11:52;9.37;;;4.10;;
5867;SDS011;2960;49.142;7.768;2023-02-01T01:14:20;9.53;;;3.30;;
5867;SDS011;2960;49.142;7.768;2023-02-01T01:16:47;10.00;;;3.73;;
5867;SDS011;2960;49.142;7.768;2023-02-01T01:19:16;9.60;;;4.10;;
5867;SDS011;2960;49.142;7.768;2023-02-01T01:21:43;9.93;;;4.00;;
5867;SDS011;2960;49.142;7.768;2023-02-01T01:24:11;10.20;;;3.80;;
5867;SDS011;2960;49.142;7.768;2023-02-01T01:26:38;9.13;;;3.47;;
5867;SDS011;2960;49.142;7.768;2023-02-01T01:29:05;8.70;;;3.60;;
5867;SDS011;2960;49.142;7.768;2023-02-01T01:31:32;9.50;;;3.80;;
5867;SDS011;2960;49.142;7.768;2023-02-01T01:33:59;9.57;;;3.83;;
5867;SDS011;2960;49.142;7.768;2023-02-01T01:36:28;10.60;;;3.53;;
5867;SDS011;2960;49.142;7.768;2023-02-01T01:38:56;9.93;;;3.90;;
5867;SDS011;2960;49.142;7.768;2023-02-01T01:41:24;9.57;;;3.70;;
5867;SDS011;2960;49.142;7.768;2023-02-01T01:43:56;10.10;;;4.20;;
5867;SDS011;2960;49.142;7.768;2023-02-01T01:46:25;10.57;;;4.17;;
5867;SDS011;2960;49.142;7.768;2023-02-01T01:49:00;10.40;;;3.70;;
5867;SDS011;2960;49.142;7.768;2023-02-01T01:51:35;10.40;;;4.03;;
5867;SDS011;2960;49.142;7.768;2023-02-01T01:54:06;9.80;;;3.77;;
5867;SDS011;2960;49.142;7.768;2023-02-01T01:56:38;10.30;;;3.20;;
5867;SDS011;2960;49.142;7.768;2023-02-01T01:59:07;11.40;;;3.60;;
5867;SDS011;2960;49.142;7.768;2023-02-01T02:01:35;9.13;;;3.40;;
5867;SDS011;2960;49.142;7.768;2023-02-01T02:04:02;11.87;;;3.67;;
5867;SDS011;2960;49.142;7.768;2023-02-01T02:06:32;10.73;;;3.87;;
5867;SDS011;2960;49.142;7.768;2023-02-01T02:09:06;9.40;;;4.00;;
5867;SDS011;2960;49.142;7.768;2023-02-01T02:11:34;9.30;;;3.83;;
5867;SDS011;2960;49.142;7.768;2023-02-01T02:14:02;10.30;;;3.90;;
5867;SDS011;2960;49.142;7.768;2023-02-01T02:16:40;9.07;;;3.70;;
5867;SDS011;2960;49.142;7.768;2023-02-01T02:26:15;11.13;;;4.20;;
5867;SDS011;2960;49.142;7.768;2023-02-01T02:29:06;11.53;;;4.30;;
5867;SDS011;2960;49.142;7.768;2023-02-01T02:32:21;9.63;;;3.67;;
5867;SDS011;2960;49.142;7.768;2023-02-01T02:35:35;9.67;;;4.00;;
5867;SDS011;2960;49.142;7.768;2023-02-01T02:38:13;9.53;;;3.80;;
5867;SDS011;2960;49.142;7.768;2023-02-01T02:40:47;10.70;;;3.80;;
5867;SDS011;2960;49.142;7.768;2023-02-01T02:43:24;10.03;;;4.13;;
5867;SDS011;2960;49.142;7.768;2023-02-01T02:46:18;10.27;;;4.40;;
5867;SDS011;2960;49.142;7.768;2023-02-01T02:49:09;10.00;;;3.87;;
5867;SDS011;2960;49.142;7.768;2023-02-01T02:51:44;12.00;;;4.47;;
5867;SDS011;2960;49.142;7.768;2023-02-01T02:54:35;18.03;;;4.60;;
5867;SDS011;2960;49.142;7.768;2023-02-01T02:57:14;10.80;;;4.10;;
5867;SDS011;2960;49.142;7.768;2023-02-01T03:00:04;14.90;;;4.60;;
5867;SDS011;2960;49.142;7.768;2023-02-01T03:02:53;12.13;;;4.37;;
5867;SDS011;2960;49.142;7.768;2023-02-01T03:05:40;10.70;;;4.13;;
5867;SDS011;2960;49.142;7.768;2023-02-01T03:08:14;10.60;;;4.13;;
5867;SDS011;2960;49.142;7.768;2023-02-01T03:10:53;10.07;;;4.20;;
5867;SDS011;2960;49.142;7.768;2023-02-01T03:13:26;12.07;;;4.60;;
5867;SDS011;2960;49.142;7.768;2023-02-01T03:16:01;9.70;;;4.10;;
5867;SDS011;2960;49.142;7.768;2023-02-01T03:18:36;11.00;;;4.53;;
5867;SDS011;2960;49.142;7.768;2023-02-01T03:21:11;14.03;;;4.40;;
5867;SDS011;2960;49.142;7.768;2023-02-01T03:23:44;10.27;;;4.00;;
5867;SDS011;2960;49.142;7.768;2023-02-01T03:26:13;10.87;;;4.57;;
5867;SDS011;2960;49.142;7.768;2023-02-01T03:28:44;8.90;;;3.80;;
5867;SDS011;2960;49.142;7.768;2023-02-01T03:31:20;10.23;;;4.00;;
5867;SDS011;2960;49.142;7.768;2023-02-01T03:33:47;9.33;;;3.40;;
5867;SDS011;2960;49.142;7.768;2023-02-01T03:36:15;10.70;;;4.00;;
5867;SDS011;2960;49.142;7.768;2023-02-01T03:38:50;9.87;;;3.90;;
5867;SDS011;2960;49.142;7.768;2023-02-01T03:41:27;9.90;;;4.10;;
5867;SDS011;2960;49.142;7.768;2023-02-01T03:44:01;9.70;;;3.57;;
5867;SDS011;2960;49.142;7.768;2023-02-01T03:46:39;9.60;;;3.67;;
5867;SDS011;2960;49.142;7.768;2023-02-01T03:49:10;9.37;;;3.70;;
5867;SDS011;2960;49.142;7.768;2023-02-01T03:51:42;8.97;;;3.50;;
5867;SDS011;2960;49.142;7.768;2023-02-01T03:54:11;9.30;;;3.70;;
5867;SDS011;2960;49.142;7.768;2023-02-01T03:56:42;10.30;;;3.90;;
5867;SDS011;2960;49.142;7.768;2023-02-01T03:59:12;10.27;;;3.60;;
5867;SDS011;2960;49.142;7.768;2023-02-01T04:01:40;9.90;;;3.30;;
5867;SDS011;2960;49.142;7.768;2023-02-01T04:04:07;8.27;;;3.07;;
5867;SDS011;2960;49.142;7.768;2023-02-01T04:06:34;9.23;;;3.27;;
5867;SDS011;2960;49.142;7.768;2023-02-01T04:09:02;9.27;;;3.40;;
5867;SDS011;2960;49.142;7.768;2023-02-01T04:11:31;9.10;;;3.10;;
5867;SDS011;2960;49.142;7.768;2023-02-01T04:13:58;9.73;;;3.57;;
5867;SDS011;2960;49.142;7.768;2023-02-01T04:16:29;10.30;;;3.10;;
5867;SDS011;2960;49.142;7.768;2023-02-01T04:18:57;8.60;;;3.07;;
5867;SDS011;2960;49.142;7.768;2023-02-01T04:21:24;11.97;;;3.53;;
5867;SDS011;2960;49.142;7.768;2023-02-01T04:23:52;9.80;;;3.63;;
5867;SDS011;2960;49.142;7.768;2023-02-01T04:26:20;10.00;;;3.13;;
5867;SDS011;2960;49.142;7.768;2023-02-01T04:28:49;9.60;;;3.30;;
5867;SDS011;2960;49.142;7.768;2023-02-01T04:31:18;8.47;;;3.00;;
5867;SDS011;2960;49.142;7.768;2023-02-01T04:33:50;8.70;;;3.03;;
5867;SDS011;2960;49.142;7.768;2023-02-01T04:36:17;8.90;;;3.23;;
5867;SDS011;2960;49.142;7.768;2023-02-01T04:38:46;8.53;;;3.13;;
5867;SDS011;2960;49.142;7.768;2023-02-01T04:41:14;9.50;;;3.10;;
5867;SDS011;2960;49.142;7.768;2023-02-01T04:43:43;8.53;;;2.93;;
5867;SDS011;2960;49.142;7.768;2023-02-01T04:46:12;11.33;;;3.27;;
5867;SDS011;2960;49.142;7.768;2023-02-01T04:48:40;8.63;;;3.23;;
5867;SDS011;2960;49.142;7.768;2023-02-01T04:51:07;8.33;;;3.30;;
5867;SDS011;2960;49.142;7.768;2023-02-01T04:53:36;9.80;;;3.47;;
5867;SDS011;2960;49.142;7.768;2023-02-01T04:56:03;8.20;;;2.90;;
5867;SDS011;2960;49.142;7.768;2023-02-01T04:58:31;8.40;;;3.20;;
5867;SDS011;2960;49.142;7.768;2023-02-01T05:00:58;9.17;;;3.07;;
5867;SDS011;2960;49.142;7.768;2023-02-01T05:03:30;9.80;;;3.37;;
5867;SDS011;2960;49.142;7.768;2023-02-01T05:05:58;9.13;;;3.27;;
5867;SDS011;2960;49.142;7.768;2023-02-01T05:08:25;9.53;;;3.30;;
5867;SDS011;2960;49.142;7.768;2023-02-01T05:10:53;9.67;;;3.53;;
5867;SDS011;2960;49.142;7.768;2023-02-01T05:13:21;9.50;;;3.20;;
5867;SDS011;2960;49.142;7.768;2023-02-01T05:16:05;9.07;;;3.37;;
5867;SDS011;2960;49.142;7.768;2023-02-01T05:18:36;8.53;;;2.80;;
5867;SDS011;2960;49.142;7.768;2023-02-01T05:21:03;9.60;;;3.20;;
5867;SDS011;2960;49.142;7.768;2023-02-01T05:23:31;11.77;;;3.67;;
5867;SDS011;2960;49.142;7.768;2023-02-01T05:26:18;9.93;;;3.70;;
5867;SDS011;2960;49.142;7.768;2023-02-01T05:28:45;9.47;;;3.20;;
5867;SDS011;2960;49.142;7.768;2023-02-01T05:31:12;9.90;;;3.27;;
5867;SDS011;2960;49.142;7.768;2023-02-01T05:33:41;10.00;;;3.57;;
5867;SDS011;2960;49.142;7.768;2023-02-01T05:36:08;10.47;;;3.67;;
5867;SDS011;2960;49.142;7.768;2023-02-01T05:38:35;10.30;;;3.70;;
5867;SDS011;2960;49.142;7.768;2023-02-01T05:41:02;11.73;;;3.57;;
5867;SDS011;2960;49.142;7.768;2023-02-01T05:43:30;11.60;;;3.90;;
5867;SDS011;2960;49.142;7.768;2023-02-01T05:45:57;11.87;;;4.37;;
5867;SDS011;2960;49.142;7.768;2023-02-01T05:48:24;11.60;;;3.93;;
5867;SDS011;2960;49.142;7.768;2023-02-01T05:50:53;11.77;;;4.10;;
5867;SDS011;2960;49.142;7.768;2023-02-01T05:53:21;11.77;;;4.00;;
5867;SDS011;2960;49.142;7.768;2023-02-01T05:55:48;10.43;;;3.93;;
5867;SDS011;2960;49.142;7.768;2023-02-01T05:58:15;10.70;;;4.17;;
5867;SDS011;2960;49.142;7.768;2023-02-01T06:00:42;11.70;;;4.23;;
5867;SDS011;2960;49.142;7.768;2023-02-01T06:03:10;10.90;;;3.63;;
5867;SDS011;2960;49.142;7.768;2023-02-01T06:05:37;14.03;;;4.87;;
5867;SDS011;2960;49.142;7.768;2023-02-01T06:08:06;10.77;;;4.07;;
5867;SDS011;2960;49.142;7.768;2023-02-01T06:10:33;13.63;;;4.40;;
5867;SDS011;2960;49.142;7.768;2023-02-01T06:13:01;12.87;;;4.73;;
5867;SDS011;2960;49.142;7.768;2023-02-01T06:15:28;12.67;;;5.30;;
5867;SDS011;2960;49.142;7.768;2023-02-01T06:17:56;13.00;;;4.80;;
5867;SDS011;2960;49.142;7.768;2023-02-01T06:20:23;11.50;;;4.70;;
5867;SDS011;2960;49.142;7.768;2023-02-01T06:22:50;11.53;;;4.40;;
5867;SDS011;2960;49.142;7.768;2023-02-01T06:25:19;13.63;;;3.87;;
5867;SDS011;2960;49.142;7.768;2023-02-01T06:27:47;12.90;;;4.27;;
5867;SDS011;2960;49.142;7.768;2023-02-01T06:30:14;12.70;;;4.23;;
5867;SDS011;2960;49.142;7.768;2023-02-01T06:32:42;11.90;;;4.33;;
5867;SDS011;2960;49.142;7.768;2023-02-01T06:35:09;13.30;;;5.17;;
5867;SDS011;2960;49.142;7.768;2023-02-01T06:37:41;12.70;;;4.37;;
5867;SDS011;2960;49.142;7.768;2023-02-01T06:40:09;10.10;;;4.23;;
5867;SDS011;2960;49.142;7.768;2023-02-01T06:42:38;12.53;;;4.23;;
5867;SDS011;2960;49.142;7.768;2023-02-01T06:45:06;10.30;;;3.97;;
5867;SDS011;2960;49.142;7.768;2023-02-01T06:47:34;10.83;;;3.50;;
5867;SDS011;2960;49.142;7.768;2023-02-01T06:50:02;10.60;;;3.80;;
5867;SDS011;2960;49.142;7.768;2023-02-01T06:52:30;11.13;;;3.70;;
5867;SDS011;2960;49.142;7.768;2023-02-01T06:54:57;12.10;;;3.50;;
5867;SDS011;2960;49.142;7.768;2023-02-01T06:57:24;12.80;;;3.53;;
5867;SDS011;2960;49.142;7.768;2023-02-01T06:59:56;9.33;;;3.20;;
5867;SDS011;2960;49.142;7.768;2023-02-01T07:02:24;10.77;;;3.60;;
5867;SDS011;2960;49.142;7.768;2023-02-01T07:04:51;8.70;;;3.20;;
5867;SDS011;2960;49.142;7.768;2023-02-01T07:07:20;9.67;;;3.50;;
5867;SDS011;2960;49.142;7.768;2023-02-01T07:09:48;10.63;;;3.67;;
5867;SDS011;2960;49.142;7.768;2023-02-01T07:12:15;9.57;;;3.50;;
5867;SDS011;2960;49.142;7.768;2023-02-01T07:14:43;10.70;;;3.17;;
5867;SDS011;2960;49.142;7.768;2023-02-01T07:17:11;9.50;;;3.30;;
5867;SDS011;2960;49.142;7.768;2023-02-01T07:19:39;10.03;;;3.70;;
5867;SDS011;2960;49.142;7.768;2023-02-01T07:22:06;9.97;;;3.63;;
5867;SDS011;2960;49.142;7.768;2023-02-01T07:24:35;9.80;;;3.23;;
5867;SDS011;2960;49.142;7.768;2023-02-01T07:27:02;10.73;;;3.40;;
5867;SDS011;2960;49.142;7.768;2023-02-01T07:29:29;11.67;;;3.60;;
5867;SDS011;2960;49.142;7.768;2023-02-01T07:31:56;11.50;;;3.80;;
5867;SDS011;2960;49.142;7.768;2023-02-01T07:34:26;11.90;;;3.90;;
5867;SDS011;2960;49.142;7.768;2023-02-01T07:36:53;9.80;;;4.07;;
5867;SDS011;2960;49.142;7.768;2023-02-01T07:39:20;13.23;;;3.70;;
5867;SDS011;2960;49.142;7.768;2023-02-01T07:41:48;10.20;;;3.80;;
5867;SDS011;2960;49.142;7.768;2023-02-01T07:44:17;9.40;;;3.20;;
5867;SDS011;2960;49.142;7.768;2023-02-01T07:46:47;9.20;;;3.57;;
5867;SDS011;2960;49.142;7.768;2023-02-01T07:49:14;13.13;;;4.00;;
5867;SDS011;2960;49.142;7.768;2023-02-01T07:51:43;20.77;;;4.10;;
5867;SDS011;2960;49.142;7.768;2023-02-01T07:54:11;11.17;;;3.80;;
5867;SDS011;2960;49.142;7.768;2023-02-01T07:56:38;10.53;;;3.43;;
5867;SDS011;2960;49.142;7.768;2023-02-01T07:59:05;11.43;;;3.80;;
5867;SDS011;2960;49.142;7.768;2023-02-01T08:01:32;10.17;;;3.70;;
5867;SDS011;2960;49.142;7.768;2023-02-01T08:03:59;9.73;;;3.67;;
5867;SDS011;2960;49.142;7.768;2023-02-01T08:06:29;11.53;;;3.93;;
5867;SDS011;2960;49.142;7.768;2023-02-01T08:09:00;12.77;;;4.47;;
5867;SDS011;2960;49.142;7.768;2023-02-01T08:11:28;12.10;;;3.40;;
5867;SDS011;2960;49.142;7.768;2023-02-01T08:13:57;10.30;;;3.33;;
5867;SDS011;2960;49.142;7.768;2023-02-01T08:16:24;11.03;;;3.77;;
5867;SDS011;2960;49.142;7.768;2023-02-01T08:18:52;9.43;;;3.57;;
5867;SDS011;2960;49.142;7.768;2023-02-01T08:21:21;10.77;;;3.67;;
5867;SDS011;2960;49.142;7.768;2023-02-01T08:23:49;12.90;;;3.80;;
5867;SDS011;2960;49.142;7.768;2023-02-01T08:26:23;11.30;;;4.07;;
5867;SDS011;2960;49.142;7.768;2023-02-01T08:28:53;13.43;;;4.30;;
5867;SDS011;2960;49.142;7.768;2023-02-01T08:31:23;12.07;;;4.20;;
5867;SDS011;2960;49.142;7.768;2023-02-01T08:33:53;10.03;;;3.80;;
5867;SDS011;2960;49.142;7.768;2023-02-01T08:36:23;10.07;;;3.47;;
5867;SDS011;2960;49.142;7.768;2023-02-01T08:38:52;13.43;;;3.60;;
5867;SDS011;2960;49.142;7.768;2023-02-01T08:41:20;11.77;;;3.70;;
5867;SDS011;2960;49.142;7.768;2023-02-01T08:43:51;12.30;;;3.87;;
5867;SDS011;2960;49.142;7.768;2023-02-01T08:46:19;13.63;;;4.10;;
5867;SDS011;2960;49.142;7.768;2023-02-01T08:48:47;10.87;;;3.80;;
5867;SDS011;2960;49.142;7.768;2023-02-01T08:51:15;12.90;;;3.67;;
5867;SDS011;2960;49.142;7.768;2023-02-01T08:53:45;11.07;;;4.00;;
5867;SDS011;2960;49.142;7.768;2023-02-01T08:56:13;10.73;;;3.53;;
5867;SDS011;2960;49.142;7.768;2023-02-01T08:58:43;11.30;;;3.47;;
5867;SDS011;2960;49.142;7.768;2023-02-01T09:01:12;15.13;;;3.93;;
5867;SDS011;2960;49.142;7.768;2023-02-01T09:03:41;11.77;;;4.07;;
5867;SDS011;2960;49.142;7.768;2023-02-01T09:06:09;10.17;;;3.70;;
5867;SDS011;2960;49.142;7.768;2023-02-01T09:08:39;11.30;;;3.57;;
5867;SDS011;2960;49.142;7.768;2023-02-01T09:11:10;11.83;;;3.70;;
5867;SDS011;2960;49.142;7.768;2023-02-01T09:13:40;11.17;;;3.90;;
5867;SDS011;2960;49.142;7.768;2023-02-01T09:16:09;11.63;;;3.90;;
5867;SDS011;2960;49.142;7.768;2023-02-01T09:18:38;10.90;;;3.60;;
5867;SDS011;2960;49.142;7.768;2023-02-01T09:21:06;10.13;;;3.70;;
5867;SDS011;2960;49.142;7.768;2023-02-01T09:23:34;11.73;;;3.90;;
5867;SDS011;2960;49.142;7.768;2023-02-01T09:26:01;13.60;;;4.67;;
5867;SDS011;2960;49.142;7.768;2023-02-01T09:28:30;14.53;;;4.50;;
5867;SDS011;2960;49.142;7.768;2023-02-01T09:30:57;16.83;;;4.40;;
5867;SDS011;2960;49.142;7.768;2023-02-01T09:33:27;13.47;;;4.47;;
5867;SDS011;2960;49.142;7.768;2023-02-01T09:35:55;18.17;;;4.40;;
5867;SDS011;2960;49.142;7.768;2023-02-01T09:38:22;11.33;;;4.50;;
5867;SDS011;2960;49.142;7.768;2023-02-01T09:40:50;14.33;;;3.93;;
5867;SDS011;2960;49.142;7.768;2023-02-01T09:43:21;11.57;;;3.93;;
5867;SDS011;2960;49.142;7.768;2023-02-01T09:46:08;10.30;;;4.00;;
5867;SDS011;2960;49.142;7.768;2023-02-01T09:48:47;9.90;;;4.00;;
5867;SDS011;2960;49.142;7.768;2023-02-01T09:51:20;12.50;;;4.30;;
5867;SDS011;2960;49.142;7.768;2023-02-01T09:53:54;10.90;;;3.67;;
5867;SDS011;2960;49.142;7.768;2023-02-01T09:56:28;18.03;;;5.43;;
5867;SDS011;2960;49.142;7.768;2023-02-01T09:59:01;15.70;;;5.80;;
5867;SDS011;2960;49.142;7.768;2023-02-01T10:01:37;10.73;;;4.30;;
5867;SDS011;2960;49.142;7.768;2023-02-01T10:04:07;11.77;;;4.33;;
5867;SDS011;2960;49.142;7.768;2023-02-01T10:06:41;15.20;;;4.47;;
5867;SDS011;2960;49.142;7.768;2023-02-01T10:09:35;12.03;;;4.07;;
5867;SDS011;2960;49.142;7.768;2023-02-01T10:12:32;12.60;;;4.30;;
5867;SDS011;2960;49.142;7.768;2023-02-01T10:15:45;14.77;;;4.80;;
5867;SDS011;2960;49.142;7.768;2023-02-01T10:18:34;14.10;;;4.50;;
5867;SDS011;2960;49.142;7.768;2023-02-01T10:21:17;10.97;;;4.00;;
5867;SDS011;2960;49.142;7.768;2023-02-01T10:24:25;11.07;;;4.27;;
5867;SDS011;2960;49.142;7.768;2023-02-01T10:27:06;12.97;;;4.20;;
5867;SDS011;2960;49.142;7.768;2023-02-01T10:29:41;10.10;;;3.70;;
5867;SDS011;2960;49.142;7.768;2023-02-01T10:32:14;12.20;;;3.80;;
5867;SDS011;2960;49.142;7.768;2023-02-01T10:34:46;11.10;;;3.60;;
5867;SDS011;2960;49.142;7.768;2023-02-01T10:37:23;10.80;;;3.63;;
5867;SDS011;2960;49.142;7.768;2023-02-01T10:39:55;11.40;;;3.57;;
5867;SDS011;2960;49.142;7.768;2023-02-01T10:42:25;11.80;;;4.03;;
5867;SDS011;2960;49.142;7.768;2023-02-01T10:44:54;13.13;;;4.43;;
5867;SDS011;2960;49.142;7.768;2023-02-01T10:47:25;14.13;;;3.87;;
5867;SDS011;2960;49.142;7.768;2023-02-01T10:49:54;9.37;;;3.53;;
5867;SDS011;2960;49.142;7.768;2023-02-01T10:52:31;15.90;;;3.97;;
5867;SDS011;2960;49.142;7.768;2023-02-01T10:55:25;12.30;;;3.87;;
5867;SDS011;2960;49.142;7.768;2023-02-01T10:58:04;13.70;;;3.63;;
5867;SDS011;2960;49.142;7.768;2023-02-01T11:00:34;11.07;;;3.80;;
5867;SDS011;2960;49.142;7.768;2023-02-01T11:03:20;9.83;;;3.73;;
5867;SDS011;2960;49.142;7.768;2023-02-01T11:06:09;14.20;;;3.93;;
5867;SDS011;2960;49.142;7.768;2023-02-01T11:08:48;16.17;;;4.00;;
5867;SDS011;2960;49.142;7.768;2023-02-01T11:11:17;15.13;;;3.63;;
5867;SDS011;2960;49.142;7.768;2023-02-01T11:13:51;11.13;;;3.73;;
5867;SDS011;2960;49.142;7.768;2023-02-01T11:16:20;9.77;;;3.80;;
5867;SDS011;2960;49.142;7.768;2023-02-01T11:18:55;11.30;;;3.83;;
5867;SDS011;2960;49.142;7.768;2023-02-01T11:21:24;11.07;;;3.87;;
5867;SDS011;2960;49.142;7.768;2023-02-01T11:23:53;11.60;;;3.70;;
5867;SDS011;2960;49.142;7.768;2023-02-01T11:26:21;11.17;;;3.97;;
5867;SDS011;2960;49.142;7.768;2023-02-01T11:28:52;10.93;;;3.80;;
5867;SDS011;2960;49.142;7.768;2023-02-01T11:31:23;11.60;;;3.60;;
5867;SDS011;2960;49.142;7.768;2023-02-01T11:33:53;11.53;;;3.40;;
5867;SDS011;2960;49.142;7.768;2023-02-01T11:36:26;13.00;;;3.63;;
5867;SDS011;2960;49.142;7.768;2023-02-01T11:39:09;9.30;;;3.80;;
5867;SDS011;2960;49.142;7.768;2023-02-01T11:41:56;10.30;;;3.90;;
5867;SDS011;2960;49.142;7.768;2023-02-01T11:44:30;10.10;;;3.67;;
5867;SDS011;2960;49.142;7.768;2023-02-01T11:49:50;11.07;;;4.17;;
5867;SDS011;2960;49.142;7.768;2023-02-01T11:52:24;10.80;;;3.43;;
5867;SDS011;2960;49.142;7.768;2023-02-01T11:55:21;13.37;;;3.50;;
5867;SDS011;2960;49.142;7.768;2023-02-01T12:01:42;11.00;;;3.60;;
5867;SDS011;2960;49.142;7.768;2023-02-01T12:04:42;11.10;;;3.63;;
5867;SDS011;2960;49.142;7.768;2023-02-01T12:07:44;9.57;;;3.33;;
5867;SDS011;2960;49.142;7.768;2023-02-01T12:10:28;10.70;;;3.60;;
5867;SDS011;2960;49.142;7.768;2023-02-01T12:13:12;12.70;;;3.83;;
5867;SDS011;2960;49.142;7.768;2023-02-01T12:16:01;11.87;;;3.50;;
5867;SDS011;2960;49.142;7.768;2023-02-01T12:18:44;17.47;;;4.07;;
5867;SDS011;2960;49.142;7.768;2023-02-01T12:21:51;11.53;;;3.50;;
5867;SDS011;2960;49.142;7.768;2023-02-01T12:24:49;14.20;;;4.00;;
5867;SDS011;2960;49.142;7.768;2023-02-01T12:27:52;11.17;;;3.40;;
5867;SDS011;2960;49.142;7.768;2023-02-01T12:33:52;11.53;;;3.80;;
5867;SDS011;2960;49.142;7.768;2023-02-01T12:36:38;14.77;;;3.70;;
5867;SDS011;2960;49.142;7.768;2023-02-01T12:39:17;12.43;;;4.03;;
5867;SDS011;2960;49.142;7.768;2023-02-01T12:41:52;10.30;;;4.03;;
5867;SDS011;2960;49.142;7.768;2023-02-01T12:44:35;10.43;;;3.90;;
5867;SDS011;2960;49.142;7.768;2023-02-01T12:47:11;17.20;;;4.10;;
5867;SDS011;2960;49.142;7.768;2023-02-01T12:49:46;9.97;;;3.70;;
5867;SDS011;2960;49.142;7.768;2023-02-01T12:52:23;11.33;;;4.00;;
5867;SDS011;2960;49.142;7.768;2023-02-01T12:55:01;11.50;;;3.83;;
5867;SDS011;2960;49.142;7.768;2023-02-01T12:57:37;10.93;;;4.20;;
5867;SDS011;2960;49.142;7.768;2023-02-01T13:00:16;14.40;;;4.30;;
5867;SDS011;2960;49.142;7.768;2023-02-01T13:02:52;14.60;;;5.00;;
5867;SDS011;2960;49.142;7.768;2023-02-01T13:05:27;15.77;;;4.20;;
5867;SDS011;2960;49.142;7.768;2023-02-01T13:08:01;18.30;;;3.83;;
5867;SDS011;2960;49.142;7.768;2023-02-01T13:10:34;13.17;;;3.90;;
5867;SDS011;2960;49.142;7.768;2023-02-01T13:13:10;9.77;;;3.70;;
5867;SDS011;2960;49.142;7.768;2023-02-01T13:15:49;9.93;;;3.87;;
5867;SDS011;2960;49.142;7.768;2023-02-01T13:18:39;12.20;;;3.90;;
5867;SDS011;2960;49.142;7.768;2023-02-01T13:21:13;10.33;;;3.70;;
5867;SDS011;2960;49.142;7.768;2023-02-01T13:23:45;12.57;;;3.60;;
5867;SDS011;2960;49.142;7.768;2023-02-01T13:26:14;10.27;;;3.70;;
5867;SDS011;2960;49.142;7.768;2023-02-01T13:28:42;10.67;;;3.87;;
5867;SDS011;2960;49.142;7.768;2023-02-01T13:31:20;10.73;;;3.67;;
5867;SDS011;2960;49.142;7.768;2023-02-01T13:34:22;9.87;;;3.73;;
5867;SDS011;2960;49.142;7.768;2023-02-01T13:37:31;9.90;;;3.40;;
5867;SDS011;2960;49.142;7.768;2023-02-01T13:43:14;9.77;;;3.50;;
5867;SDS011;2960;49.142;7.768;2023-02-01T13:45:52;12.47;;;4.07;;
5867;SDS011;2960;49.142;7.768;2023-02-01T13:48:25;14.73;;;4.17;;
5867;SDS011;2960;49.142;7.768;2023-02-01T13:51:05;10.90;;;3.70;;
5867;SDS011;2960;49.142;7.768;2023-02-01T13:53:33;12.17;;;3.87;;
5867;SDS011;2960;49.142;7.768;2023-02-01T13:56:03;10.43;;;3.70;;
5867;SDS011;2960;49.142;7.768;2023-02-01T13:58:37;13.10;;;4.10;;
5867;SDS011;2960;49.142;7.768;2023-02-01T14:04:02;11.87;;;4.27;;
5867;SDS011;2960;49.142;7.768;2023-02-01T14:06:35;11.17;;;4.27;;
5867;SDS011;2960;49.142;7.768;2023-02-01T14:09:15;13.17;;;4.70;;
5867;SDS011;2960;49.142;7.768;2023-02-01T14:11:49;11.60;;;4.30;;
5867;SDS011;2960;49.142;7.768;2023-02-01T14:23:28;9.50;;;3.90;;
5867;SDS011;2960;49.142;7.768;2023-02-01T14:28:45;11.10;;;4.17;;
5867;SDS011;2960;49.142;7.768;2023-02-01T14:31:34;10.30;;;3.80;;
5867;SDS011;2960;49.142;7.768;2023-02-01T14:34:19;10.97;;;4.27;;
5867;SDS011;2960;49.142;7.768;2023-02-01T14:36:58;9.43;;;4.10;;
5867;SDS011;2960;49.142;7.768;2023-02-01T14:39:34;10.20;;;3.50;;
5867;SDS011;2960;49.142;7.768;2023-02-01T14:42:16;13.70;;;3.93;;
5867;SDS011;2960;49.142;7.768;2023-02-01T14:44:48;12.83;;;4.50;;
5867;SDS011;2960;49.142;7.768;2023-02-01T14:47:27;15.37;;;4.30;;
5867;SDS011;2960;49.142;7.768;2023-02-01T14:50:02;10.30;;;3.70;;
5867;SDS011;2960;49.142;7.768;2023-02-01T14:53:06;13.50;;;4.00;;
5867;SDS011;2960;49.142;7.768;2023-02-01T14:55:45;14.13;;;4.00;;
5867;SDS011;2960;49.142;7.768;2023-02-01T14:58:18;10.20;;;3.70;;
5867;SDS011;2960;49.142;7.768;2023-02-01T15:00:57;10.90;;;4.00;;
5867;SDS011;2960;49.142;7.768;2023-02-01T15:03:36;10.90;;;4.10;;
5867;SDS011;2960;49.142;7.768;2023-02-01T15:06:20;9.87;;;3.70;;
5867;SDS011;2960;49.142;7.768;2023-02-01T15:08:55;12.13;;;4.13;;
5867;SDS011;2960;49.142;7.768;2023-02-01T15:11:26;9.20;;;3.70;;
5867;SDS011;2960;49.142;7.768;2023-02-01T15:13:53;11.73;;;3.83;;
5867;SDS011;2960;49.142;7.768;2023-02-01T15:16:22;9.10;;;3.50;;
5867;SDS011;2960;49.142;7.768;2023-02-01T15:19:06;11.27;;;3.87;;
5867;SDS011;2960;49.142;7.768;2023-02-01T15:21:41;16.10;;;4.03;;
5867;SDS011;2960;49.142;7.768;2023-02-01T15:24:14;11.67;;;4.40;;
5867;SDS011;2960;49.142;7.768;2023-02-01T15:26:46;11.53;;;4.20;;
5867;SDS011;2960;49.142;7.768;2023-02-01T15:29:14;9.27;;;3.57;;
5867;SDS011;2960;49.142;7.768;2023-02-01T15:31:51;12.73;;;4.07;;
5867;SDS011;2960;49.142;7.768;2023-02-01T15:34:19;12.53;;;4.33;;
5867;SDS011;2960;49.142;7.768;2023-02-01T15:36:47;8.83;;;3.70;;
5867;SDS011;2960;49.142;7.768;2023-02-01T15:39:23;12.80;;;3.87;;
5867;SDS011;2960;49.142;7.768;2023-02-01T15:41:53;13.80;;;4.10;;
5867;SDS011;2960;49.142;7.768;2023-02-01T15:44:30;12.00;;;4.40;;
5867;SDS011;2960;49.142;7.768;2023-02-01T15:47:05;11.93;;;3.97;;
5867;SDS011;2960;49.142;7.768;2023-02-01T15:49:44;10.70;;;3.70;;
5867;SDS011;2960;49.142;7.768;2023-02-01T15:52:18;11.27;;;3.53;;
5867;SDS011;2960;49.142;7.768;2023-02-01T15:54:54;10.87;;;3.60;;
5867;SDS011;2960;49.142;7.768;2023-02-01T15:57:26;10.60;;;3.57;;
5867;SDS011;2960;49.142;7.768;2023-02-01T15:59:56;14.30;;;3.90;;
5867;SDS011;2960;49.142;7.768;2023-02-01T16:02:27;14.33;;;3.67;;
5867;SDS011;2960;49.142;7.768;2023-02-01T16:05:01;12.27;;;4.10;;
5867;SDS011;2960;49.142;7.768;2023-02-01T16:07:29;13.70;;;4.10;;
5867;SDS011;2960;49.142;7.768;2023-02-01T16:10:01;11.10;;;4.03;;
5867;SDS011;2960;49.142;7.768;2023-02-01T16:12:48;10.07;;;3.83;;
5867;SDS011;2960;49.142;7.768;2023-02-01T16:15:17;13.23;;;4.00;;